sensor_id;sensor_type;location;lat;lon;timestamp;temperature;humidity
68480;DHT22;55469;48.934;12.050;2023-04-07T00:00:53;8.80;76.00
68480;DHT22;55469;48.934;12.050;2023-04-07T00:03:19;8.80;76.00
68480;DHT22;55469;48.934;12.050;2023-04-07T00:05:44;8.80;76.10
68480;DHT22;55469;48.934;12.050;2023-04-07T00:08:10;8.70;76.10
68480;DHT22;55469;48.934;12.050;2023-04-07T00:10:36;8.70;76.10
68480;DHT22;55469;48.934;12.050;2023-04-07T00:13:02;8.60;76.20
68480;DHT22;55469;48.934;12.050;2023-04-07T00:15:27;8.70;76.20
68480;DHT22;55469;48.934;12.050;2023-04-07T00:17:55;8.60;76.20
68480;DHT22;55469;48.934;12.050;2023-04-07T00:20:20;8.60;76.30
68480;DHT22;55469;48.934;12.050;2023-04-07T00:22:46;8.50;76.40
68480;DHT22;55469;48.934;12.050;2023-04-07T00:25:12;8.50;76.40
68480;DHT22;55469;48.934;12.050;2023-04-07T00:27:38;8.50;76.40
68480;DHT22;55469;48.934;12.050;2023-04-07T00:30:04;8.50;76.50
68480;DHT22;55469;48.934;12.050;2023-04-07T00:32:31;8.40;77.60
68480;DHT22;55469;48.934;12.050;2023-04-07T00:34:57;8.40;76.60
68480;DHT22;55469;48.934;12.050;2023-04-07T00:37:22;8.40;76.60
68480;DHT22;55469;48.934;12.050;2023-04-07T00:39:50;8.40;76.70
68480;DHT22;55469;48.934;12.050;2023-04-07T00:42:17;8.40;76.60
68480;DHT22;55469;48.934;12.050;2023-04-07T00:44:43;8.30;76.70
68480;DHT22;55469;48.934;12.050;2023-04-07T00:47:09;8.30;76.70
68480;DHT22;55469;48.934;12.050;2023-04-07T00:49:38;8.30;76.90
68480;DHT22;55469;48.934;12.050;2023-04-07T00:52:04;8.30;76.80
68480;DHT22;55469;48.934;12.050;2023-04-07T00:54:32;8.20;76.90
68480;DHT22;55469;48.934;12.050;2023-04-07T00:56:58;8.20;76.90
68480;DHT22;55469;48.934;12.050;2023-04-07T00:59:24;8.20;76.90
68480;DHT22;55469;48.934;12.050;2023-04-07T01:01:57;8.20;76.90
68480;DHT22;55469;48.934;12.050;2023-04-07T01:04:54;8.20;77.00
68480;DHT22;55469;48.934;12.050;2023-04-07T01:07:33;8.10;77.10
68480;DHT22;55469;48.934;12.050;2023-04-07T01:10:04;8.00;77.30
68480;DHT22;55469;48.934;12.050;2023-04-07T01:12:42;8.00;77.40
68480;DHT22;55469;48.934;12.050;2023-04-07T01:15:12;8.00;77.20
68480;DHT22;55469;48.934;12.050;2023-04-07T01:17:43;8.00;77.30
68480;DHT22;55469;48.934;12.050;2023-04-07T01:20:14;8.00;77.20
68480;DHT22;55469;48.934;12.050;2023-04-07T01:22:43;8.00;77.20
68480;DHT22;55469;48.934;12.050;2023-04-07T01:30:47;7.90;77.50
68480;DHT22;55469;48.934;12.050;2023-04-07T01:33:14;7.80;77.40
68480;DHT22;55469;48.934;12.050;2023-04-07T01:35:40;7.80;77.40
68480;DHT22;55469;48.934;12.050;2023-04-07T01:38:08;7.80;77.50
68480;DHT22;55469;48.934;12.050;2023-04-07T01:40:36;7.80;77.60
68480;DHT22;55469;48.934;12.050;2023-04-07T01:43:04;7.80;77.60
68480;DHT22;55469;48.934;12.050;2023-04-07T01:45:31;7.70;77.60
68480;DHT22;55469;48.934;12.050;2023-04-07T01:47:59;7.70;77.60
68480;DHT22;55469;48.934;12.050;2023-04-07T01:50:25;7.70;77.60
68480;DHT22;55469;48.934;12.050;2023-04-07T01:52:52;7.70;77.60
68480;DHT22;55469;48.934;12.050;2023-04-07T01:55:18;7.60;77.60
68480;DHT22;55469;48.934;12.050;2023-04-07T01:57:45;7.60;77.60
68480;DHT22;55469;48.934;12.050;2023-04-07T02:00:11;7.60;78.70
68480;DHT22;55469;48.934;12.050;2023-04-07T02:02:40;7.60;77.70
68480;DHT22;55469;48.934;12.050;2023-04-07T02:05:12;7.60;77.70
68480;DHT22;55469;48.934;12.050;2023-04-07T02:07:57;7.50;77.80
68480;DHT22;55469;48.934;12.050;2023-04-07T02:10:26;7.50;77.70
68480;DHT22;55469;48.934;12.050;2023-04-07T02:12:54;7.50;77.90
68480;DHT22;55469;48.934;12.050;2023-04-07T02:15:22;7.50;77.80
68480;DHT22;55469;48.934;12.050;2023-04-07T02:17:51;7.50;78.00
68480;DHT22;55469;48.934;12.050;2023-04-07T02:20:19;7.50;77.80
68480;DHT22;55469;48.934;12.050;2023-04-07T02:22:45;7.40;77.80
68480;DHT22;55469;48.934;12.050;2023-04-07T02:25:28;7.40;77.80
68480;DHT22;55469;48.934;12.050;2023-04-07T02:27:58;7.40;77.80
68480;DHT22;55469;48.934;12.050;2023-04-07T02:30:24;7.40;77.80
68480;DHT22;55469;48.934;12.050;2023-04-07T02:32:51;7.40;77.90
68480;DHT22;55469;48.934;12.050;2023-04-07T02:35:17;7.40;77.80
68480;DHT22;55469;48.934;12.050;2023-04-07T02:37:44;7.30;77.80
68480;DHT22;55469;48.934;12.050;2023-04-07T02:40:10;7.30;77.90
68480;DHT22;55469;48.934;12.050;2023-04-07T02:42:36;7.30;77.80
68480;DHT22;55469;48.934;12.050;2023-04-07T02:45:03;7.30;77.90
68480;DHT22;55469;48.934;12.050;2023-04-07T02:47:29;7.20;78.00
68480;DHT22;55469;48.934;12.050;2023-04-07T02:49:55;7.20;77.90
68480;DHT22;55469;48.934;12.050;2023-04-07T02:52:21;7.20;78.00
68480;DHT22;55469;48.934;12.050;2023-04-07T02:54:47;7.20;78.00
68480;DHT22;55469;48.934;12.050;2023-04-07T02:57:12;7.10;78.00
68480;DHT22;55469;48.934;12.050;2023-04-07T02:59:38;7.10;78.00
68480;DHT22;55469;48.934;12.050;2023-04-07T03:02:04;7.10;78.00
68480;DHT22;55469;48.934;12.050;2023-04-07T03:04:30;7.10;78.00
68480;DHT22;55469;48.934;12.050;2023-04-07T03:06:56;7.10;78.00
68480;DHT22;55469;48.934;12.050;2023-04-07T03:09:22;7.00;78.10
68480;DHT22;55469;48.934;12.050;2023-04-07T03:11:48;7.10;78.20
68480;DHT22;55469;48.934;12.050;2023-04-07T03:14:15;7.00;78.20
68480;DHT22;55469;48.934;12.050;2023-04-07T03:16:41;7.00;78.20
68480;DHT22;55469;48.934;12.050;2023-04-07T03:19:07;7.00;78.30
68480;DHT22;55469;48.934;12.050;2023-04-07T03:21:34;6.90;78.30
68480;DHT22;55469;48.934;12.050;2023-04-07T03:24:03;7.00;78.40
68480;DHT22;55469;48.934;12.050;2023-04-07T03:26:30;6.90;78.30
68480;DHT22;55469;48.934;12.050;2023-04-07T03:28:55;6.90;78.40
68480;DHT22;55469;48.934;12.050;2023-04-07T03:31:21;6.90;78.40
68480;DHT22;55469;48.934;12.050;2023-04-07T03:33:48;6.90;78.40
68480;DHT22;55469;48.934;12.050;2023-04-07T03:36:14;6.80;78.40
68480;DHT22;55469;48.934;12.050;2023-04-07T03:38:41;6.80;78.50
68480;DHT22;55469;48.934;12.050;2023-04-07T03:41:07;6.80;78.50
68480;DHT22;55469;48.934;12.050;2023-04-07T03:43:33;6.80;78.40
68480;DHT22;55469;48.934;12.050;2023-04-07T03:45:58;6.80;78.40
68480;DHT22;55469;48.934;12.050;2023-04-07T03:48:24;6.80;78.40
68480;DHT22;55469;48.934;12.050;2023-04-07T03:50:50;6.80;78.50
68480;DHT22;55469;48.934;12.050;2023-04-07T03:53:16;6.70;78.50
68480;DHT22;55469;48.934;12.050;2023-04-07T03:55:43;6.70;78.50
68480;DHT22;55469;48.934;12.050;2023-04-07T03:58:09;6.70;78.50
68480;DHT22;55469;48.934;12.050;2023-04-07T04:00:36;6.70;78.60
68480;DHT22;55469;48.934;12.050;2023-04-07T04:03:02;6.70;78.60
68480;DHT22;55469;48.934;12.050;2023-04-07T04:05:27;6.60;78.50
68480;DHT22;55469;48.934;12.050;2023-04-07T04:07:53;6.70;78.60
68480;DHT22;55469;48.934;12.050;2023-04-07T04:10:19;6.60;78.50
68480;DHT22;55469;48.934;12.050;2023-04-07T04:12:46;6.60;78.60
68480;DHT22;55469;48.934;12.050;2023-04-07T04:15:13;6.60;78.60
68480;DHT22;55469;48.934;12.050;2023-04-07T04:17:40;6.60;78.60
68480;DHT22;55469;48.934;12.050;2023-04-07T04:20:06;6.50;78.70
68480;DHT22;55469;48.934;12.050;2023-04-07T04:22:33;6.50;78.70
68480;DHT22;55469;48.934;12.050;2023-04-07T04:24:59;6.50;78.60
68480;DHT22;55469;48.934;12.050;2023-04-07T04:27:25;6.50;78.60
68480;DHT22;55469;48.934;12.050;2023-04-07T04:29:51;6.50;78.70
68480;DHT22;55469;48.934;12.050;2023-04-07T04:32:18;6.40;78.60
68480;DHT22;55469;48.934;12.050;2023-04-07T04:34:44;6.40;78.70
68480;DHT22;55469;48.934;12.050;2023-04-07T04:37:10;6.40;78.80
68480;DHT22;55469;48.934;12.050;2023-04-07T04:39:36;6.40;78.70
68480;DHT22;55469;48.934;12.050;2023-04-07T04:42:02;6.40;78.70
68480;DHT22;55469;48.934;12.050;2023-04-07T04:44:28;6.40;78.70
68480;DHT22;55469;48.934;12.050;2023-04-07T04:46:55;6.40;78.70
68480;DHT22;55469;48.934;12.050;2023-04-07T04:49:21;6.30;78.70
68480;DHT22;55469;48.934;12.050;2023-04-07T04:51:47;6.30;78.70
68480;DHT22;55469;48.934;12.050;2023-04-07T04:54:13;6.30;78.80
68480;DHT22;55469;48.934;12.050;2023-04-07T04:56:38;6.30;78.80
68480;DHT22;55469;48.934;12.050;2023-04-07T04:59:04;6.30;78.80
68480;DHT22;55469;48.934;12.050;2023-04-07T05:01:30;6.20;78.80
68480;DHT22;55469;48.934;12.050;2023-04-07T05:03:59;6.20;78.80
68480;DHT22;55469;48.934;12.050;2023-04-07T05:06:25;6.20;78.70
68480;DHT22;55469;48.934;12.050;2023-04-07T05:08:52;6.20;79.80
68480;DHT22;55469;48.934;12.050;2023-04-07T05:11:18;6.20;78.70
68480;DHT22;55469;48.934;12.050;2023-04-07T05:13:43;6.20;78.80
68480;DHT22;55469;48.934;12.050;2023-04-07T05:16:09;6.20;78.80
68480;DHT22;55469;48.934;12.050;2023-04-07T05:18:35;6.20;78.80
68480;DHT22;55469;48.934;12.050;2023-04-07T05:21:01;6.20;78.70
68480;DHT22;55469;48.934;12.050;2023-04-07T05:23:26;6.10;78.60
68480;DHT22;55469;48.934;12.050;2023-04-07T05:25:52;6.20;78.80
68480;DHT22;55469;48.934;12.050;2023-04-07T05:28:18;6.10;78.70
68480;DHT22;55469;48.934;12.050;2023-04-07T05:30:44;6.20;78.70
68480;DHT22;55469;48.934;12.050;2023-04-07T05:33:10;6.10;78.80
68480;DHT22;55469;48.934;12.050;2023-04-07T05:35:36;6.00;78.70
68480;DHT22;55469;48.934;12.050;2023-04-07T05:38:01;6.10;78.90
68480;DHT22;55469;48.934;12.050;2023-04-07T05:40:28;6.10;78.70
68480;DHT22;55469;48.934;12.050;2023-04-07T05:42:55;6.10;78.70
68480;DHT22;55469;48.934;12.050;2023-04-07T05:45:20;6.10;78.80
68480;DHT22;55469;48.934;12.050;2023-04-07T05:47:46;6.10;78.80
68480;DHT22;55469;48.934;12.050;2023-04-07T05:50:16;6.10;78.70
68480;DHT22;55469;48.934;12.050;2023-04-07T05:52:42;6.00;78.80
68480;DHT22;55469;48.934;12.050;2023-04-07T05:55:08;6.10;78.80
68480;DHT22;55469;48.934;12.050;2023-04-07T05:57:34;6.00;78.70
68480;DHT22;55469;48.934;12.050;2023-04-07T06:00:00;6.00;78.70
68480;DHT22;55469;48.934;12.050;2023-04-07T06:02:26;6.00;78.80
68480;DHT22;55469;48.934;12.050;2023-04-07T06:04:52;6.00;78.80
68480;DHT22;55469;48.934;12.050;2023-04-07T06:07:17;6.00;78.80
68480;DHT22;55469;48.934;12.050;2023-04-07T06:09:43;6.00;78.70
68480;DHT22;55469;48.934;12.050;2023-04-07T06:12:09;6.00;78.80
68480;DHT22;55469;48.934;12.050;2023-04-07T06:14:37;6.00;79.90
68480;DHT22;55469;48.934;12.050;2023-04-07T06:17:03;6.00;78.70
68480;DHT22;55469;48.934;12.050;2023-04-07T06:19:28;6.00;78.70
68480;DHT22;55469;48.934;12.050;2023-04-07T06:21:54;6.00;78.70
68480;DHT22;55469;48.934;12.050;2023-04-07T06:24:20;6.00;78.70
68480;DHT22;55469;48.934;12.050;2023-04-07T06:26:47;6.00;78.60
68480;DHT22;55469;48.934;12.050;2023-04-07T06:29:13;6.00;78.70
68480;DHT22;55469;48.934;12.050;2023-04-07T06:31:39;6.00;78.60
68480;DHT22;55469;48.934;12.050;2023-04-07T06:34:05;6.00;78.50
68480;DHT22;55469;48.934;12.050;2023-04-07T06:36:31;6.00;78.50
68480;DHT22;55469;48.934;12.050;2023-04-07T06:38:58;6.00;78.50
68480;DHT22;55469;48.934;12.050;2023-04-07T06:41:24;6.00;78.50
68480;DHT22;55469;48.934;12.050;2023-04-07T06:43:49;6.00;78.40
68480;DHT22;55469;48.934;12.050;2023-04-07T06:46:16;6.00;78.50
68480;DHT22;55469;48.934;12.050;2023-04-07T06:48:42;6.00;78.50
68480;DHT22;55469;48.934;12.050;2023-04-07T06:51:08;6.00;78.40
68480;DHT22;55469;48.934;12.050;2023-04-07T06:53:33;6.00;78.50
68480;DHT22;55469;48.934;12.050;2023-04-07T06:56:06;6.00;78.40
68480;DHT22;55469;48.934;12.050;2023-04-07T06:58:34;6.00;78.40
68480;DHT22;55469;48.934;12.050;2023-04-07T07:01:00;6.10;78.20
68480;DHT22;55469;48.934;12.050;2023-04-07T07:03:27;6.10;78.20
68480;DHT22;55469;48.934;12.050;2023-04-07T07:05:57;6.10;78.00
68480;DHT22;55469;48.934;12.050;2023-04-07T07:08:24;6.10;77.90
68480;DHT22;55469;48.934;12.050;2023-04-07T07:10:51;6.10;78.00
68480;DHT22;55469;48.934;12.050;2023-04-07T07:13:22;6.10;78.00
68480;DHT22;55469;48.934;12.050;2023-04-07T07:15:49;6.10;78.90
68480;DHT22;55469;48.934;12.050;2023-04-07T07:18:16;6.10;77.90
68480;DHT22;55469;48.934;12.050;2023-04-07T07:20:42;6.20;77.90
68480;DHT22;55469;48.934;12.050;2023-04-07T07:23:08;6.20;78.40
68480;DHT22;55469;48.934;12.050;2023-04-07T07:25:33;6.20;77.80
68480;DHT22;55469;48.934;12.050;2023-04-07T07:27:59;6.20;77.80
68480;DHT22;55469;48.934;12.050;2023-04-07T07:30:25;6.20;77.10
68480;DHT22;55469;48.934;12.050;2023-04-07T07:32:52;6.30;77.30
68480;DHT22;55469;48.934;12.050;2023-04-07T07:35:20;6.30;77.40
68480;DHT22;55469;48.934;12.050;2023-04-07T07:37:46;6.40;77.40
68480;DHT22;55469;48.934;12.050;2023-04-07T07:40:12;6.50;78.60
68480;DHT22;55469;48.934;12.050;2023-04-07T07:42:38;6.60;79.20
68480;DHT22;55469;48.934;12.050;2023-04-07T07:45:04;6.60;79.10
68480;DHT22;55469;48.934;12.050;2023-04-07T07:47:31;6.70;78.70
68480;DHT22;55469;48.934;12.050;2023-04-07T07:49:57;6.80;79.30
68480;DHT22;55469;48.934;12.050;2023-04-07T07:52:22;6.90;79.00
68480;DHT22;55469;48.934;12.050;2023-04-07T07:54:49;7.20;78.80
68480;DHT22;55469;48.934;12.050;2023-04-07T07:57:15;7.40;77.90
68480;DHT22;55469;48.934;12.050;2023-04-07T07:59:42;7.60;77.40
68480;DHT22;55469;48.934;12.050;2023-04-07T08:02:11;7.70;77.00
68480;DHT22;55469;48.934;12.050;2023-04-07T08:04:36;7.90;76.70
68480;DHT22;55469;48.934;12.050;2023-04-07T08:07:03;8.10;76.40
68480;DHT22;55469;48.934;12.050;2023-04-07T08:09:29;8.30;76.30
68480;DHT22;55469;48.934;12.050;2023-04-07T08:11:57;8.40;76.00
68480;DHT22;55469;48.934;12.050;2023-04-07T08:14:24;8.50;75.50
68480;DHT22;55469;48.934;12.050;2023-04-07T08:16:50;8.60;75.40
68480;DHT22;55469;48.934;12.050;2023-04-07T08:19:17;8.80;75.30
68480;DHT22;55469;48.934;12.050;2023-04-07T08:21:43;8.80;75.20
68480;DHT22;55469;48.934;12.050;2023-04-07T08:24:11;9.00;75.00
68480;DHT22;55469;48.934;12.050;2023-04-07T08:26:37;9.10;74.90
68480;DHT22;55469;48.934;12.050;2023-04-07T08:29:03;9.20;74.70
68480;DHT22;55469;48.934;12.050;2023-04-07T08:31:30;9.30;74.60
68480;DHT22;55469;48.934;12.050;2023-04-07T08:33:56;9.30;74.70
68480;DHT22;55469;48.934;12.050;2023-04-07T08:36:26;9.40;74.60
68480;DHT22;55469;48.934;12.050;2023-04-07T08:38:53;9.60;74.40
68480;DHT22;55469;48.934;12.050;2023-04-07T08:41:33;9.60;74.10
68480;DHT22;55469;48.934;12.050;2023-04-07T08:44:02;9.70;74.20
68480;DHT22;55469;48.934;12.050;2023-04-07T08:46:29;9.70;74.10
68480;DHT22;55469;48.934;12.050;2023-04-07T08:48:58;9.80;74.60
68480;DHT22;55469;48.934;12.050;2023-04-07T08:51:30;9.90;74.60
68480;DHT22;55469;48.934;12.050;2023-04-07T08:54:09;9.90;75.30
68480;DHT22;55469;48.934;12.050;2023-04-07T08:56:40;9.90;74.10
68480;DHT22;55469;48.934;12.050;2023-04-07T08:59:09;9.90;75.30
68480;DHT22;55469;48.934;12.050;2023-04-07T09:01:36;9.90;74.20
68480;DHT22;55469;48.934;12.050;2023-04-07T09:04:03;9.90;74.00
68480;DHT22;55469;48.934;12.050;2023-04-07T09:06:33;10.00;73.80
68480;DHT22;55469;48.934;12.050;2023-04-07T09:09:01;10.10;73.90
68480;DHT22;55469;48.934;12.050;2023-04-07T09:11:28;10.20;73.40
68480;DHT22;55469;48.934;12.050;2023-04-07T09:13:59;10.30;73.20
68480;DHT22;55469;48.934;12.050;2023-04-07T09:16:28;10.40;73.10
68480;DHT22;55469;48.934;12.050;2023-04-07T09:18:55;10.40;73.10
68480;DHT22;55469;48.934;12.050;2023-04-07T09:21:21;10.40;73.00
68480;DHT22;55469;48.934;12.050;2023-04-07T09:23:47;10.50;73.00
68480;DHT22;55469;48.934;12.050;2023-04-07T09:26:25;10.50;73.30
68480;DHT22;55469;48.934;12.050;2023-04-07T09:28:58;10.50;73.20
68480;DHT22;55469;48.934;12.050;2023-04-07T09:31:47;10.50;73.10
68480;DHT22;55469;48.934;12.050;2023-04-07T09:34:30;10.60;73.00
68480;DHT22;55469;48.934;12.050;2023-04-07T09:37:00;10.70;73.10
68480;DHT22;55469;48.934;12.050;2023-04-07T09:39:27;10.60;72.80
68480;DHT22;55469;48.934;12.050;2023-04-07T09:41:53;10.60;73.10
68480;DHT22;55469;48.934;12.050;2023-04-07T09:44:22;10.70;72.90
68480;DHT22;55469;48.934;12.050;2023-04-07T09:46:52;10.70;72.50
68480;DHT22;55469;48.934;12.050;2023-04-07T09:49:23;10.70;72.70
68480;DHT22;55469;48.934;12.050;2023-04-07T09:51:54;10.80;72.80
68480;DHT22;55469;48.934;12.050;2023-04-07T09:54:38;10.90;72.70
68480;DHT22;55469;48.934;12.050;2023-04-07T09:57:07;10.90;72.70
68480;DHT22;55469;48.934;12.050;2023-04-07T09:59:39;11.00;72.70
68480;DHT22;55469;48.934;12.050;2023-04-07T10:02:10;10.90;72.60
68480;DHT22;55469;48.934;12.050;2023-04-07T10:04:37;11.00;72.70
68480;DHT22;55469;48.934;12.050;2023-04-07T10:07:04;11.10;72.50
68480;DHT22;55469;48.934;12.050;2023-04-07T10:09:30;11.10;72.40
68480;DHT22;55469;48.934;12.050;2023-04-07T10:11:57;11.10;72.60
68480;DHT22;55469;48.934;12.050;2023-04-07T10:14:31;11.20;72.20
68480;DHT22;55469;48.934;12.050;2023-04-07T10:16:59;11.30;72.00
68480;DHT22;55469;48.934;12.050;2023-04-07T10:19:30;11.30;72.10
68480;DHT22;55469;48.934;12.050;2023-04-07T10:21:58;11.40;72.00
68480;DHT22;55469;48.934;12.050;2023-04-07T10:24:50;11.40;71.80
68480;DHT22;55469;48.934;12.050;2023-04-07T10:27:22;11.60;71.50
68480;DHT22;55469;48.934;12.050;2023-04-07T10:29:54;11.70;71.40
68480;DHT22;55469;48.934;12.050;2023-04-07T10:32:22;11.70;71.20
68480;DHT22;55469;48.934;12.050;2023-04-07T10:37:21;11.80;71.10
68480;DHT22;55469;48.934;12.050;2023-04-07T10:40:25;11.80;71.00
68480;DHT22;55469;48.934;12.050;2023-04-07T10:42:52;11.80;70.80
68480;DHT22;55469;48.934;12.050;2023-04-07T10:48:17;11.90;70.70
68480;DHT22;55469;48.934;12.050;2023-04-07T10:50:44;12.00;70.60
68480;DHT22;55469;48.934;12.050;2023-04-07T10:53:13;12.00;70.40
68480;DHT22;55469;48.934;12.050;2023-04-07T10:55:44;12.10;70.20
68480;DHT22;55469;48.934;12.050;2023-04-07T10:58:27;12.10;70.10
68480;DHT22;55469;48.934;12.050;2023-04-07T11:03:25;12.30;70.00
68480;DHT22;55469;48.934;12.050;2023-04-07T11:06:01;12.30;69.90
68480;DHT22;55469;48.934;12.050;2023-04-07T11:08:42;12.40;69.80
68480;DHT22;55469;48.934;12.050;2023-04-07T11:11:11;12.40;69.70
68480;DHT22;55469;48.934;12.050;2023-04-07T11:13:42;12.50;69.50
68480;DHT22;55469;48.934;12.050;2023-04-07T11:16:09;12.60;69.30
68480;DHT22;55469;48.934;12.050;2023-04-07T11:18:36;12.70;69.40
68480;DHT22;55469;48.934;12.050;2023-04-07T11:21:03;12.80;69.60
68480;DHT22;55469;48.934;12.050;2023-04-07T11:23:39;12.90;70.20
68480;DHT22;55469;48.934;12.050;2023-04-07T11:26:06;13.00;69.80
68480;DHT22;55469;48.934;12.050;2023-04-07T11:28:33;13.00;69.90
68480;DHT22;55469;48.934;12.050;2023-04-07T11:30:59;13.10;70.00
68480;DHT22;55469;48.934;12.050;2023-04-07T11:33:27;13.10;70.10
68480;DHT22;55469;48.934;12.050;2023-04-07T11:35:59;13.20;70.00
68480;DHT22;55469;48.934;12.050;2023-04-07T11:38:27;13.20;70.10
68480;DHT22;55469;48.934;12.050;2023-04-07T11:40:55;13.20;70.20
68480;DHT22;55469;48.934;12.050;2023-04-07T11:43:26;13.30;70.40
68480;DHT22;55469;48.934;12.050;2023-04-07T11:46:08;13.40;70.30
68480;DHT22;55469;48.934;12.050;2023-04-07T11:48:40;13.50;70.00
68480;DHT22;55469;48.934;12.050;2023-04-07T11:51:15;13.40;69.40
68480;DHT22;55469;48.934;12.050;2023-04-07T11:53:47;13.30;69.20
68480;DHT22;55469;48.934;12.050;2023-04-07T11:56:19;13.40;68.80
68480;DHT22;55469;48.934;12.050;2023-04-07T11:58:52;13.60;68.40
68480;DHT22;55469;48.934;12.050;2023-04-07T12:01:19;13.60;67.80
68480;DHT22;55469;48.934;12.050;2023-04-07T12:04:02;13.60;67.10
68480;DHT22;55469;48.934;12.050;2023-04-07T12:06:30;13.70;66.70
68480;DHT22;55469;48.934;12.050;2023-04-07T12:09:03;13.70;66.20
68480;DHT22;55469;48.934;12.050;2023-04-07T12:11:30;13.80;66.30
68480;DHT22;55469;48.934;12.050;2023-04-07T12:13:57;13.90;66.20
68480;DHT22;55469;48.934;12.050;2023-04-07T12:16:23;14.00;66.30
68480;DHT22;55469;48.934;12.050;2023-04-07T12:18:51;14.00;66.20
68480;DHT22;55469;48.934;12.050;2023-04-07T12:21:18;14.00;65.90
68480;DHT22;55469;48.934;12.050;2023-04-07T12:23:45;14.00;65.70
68480;DHT22;55469;48.934;12.050;2023-04-07T12:26:11;14.00;65.40
68480;DHT22;55469;48.934;12.050;2023-04-07T12:28:40;14.10;65.70
68480;DHT22;55469;48.934;12.050;2023-04-07T12:31:06;14.30;65.80
68480;DHT22;55469;48.934;12.050;2023-04-07T12:33:32;14.30;66.10
68480;DHT22;55469;48.934;12.050;2023-04-07T12:35:58;14.40;66.20
68480;DHT22;55469;48.934;12.050;2023-04-07T12:38:23;14.50;65.90
68480;DHT22;55469;48.934;12.050;2023-04-07T12:40:49;14.60;65.70
68480;DHT22;55469;48.934;12.050;2023-04-07T12:43:16;14.50;64.50
68480;DHT22;55469;48.934;12.050;2023-04-07T12:45:43;14.40;64.90
68480;DHT22;55469;48.934;12.050;2023-04-07T12:48:09;14.50;65.00
68480;DHT22;55469;48.934;12.050;2023-04-07T12:50:35;14.60;65.00
68480;DHT22;55469;48.934;12.050;2023-04-07T12:53:02;14.80;64.70
68480;DHT22;55469;48.934;12.050;2023-04-07T12:55:33;14.80;64.70
68480;DHT22;55469;48.934;12.050;2023-04-07T12:58:00;14.80;65.00
68480;DHT22;55469;48.934;12.050;2023-04-07T13:00:25;14.90;64.50
68480;DHT22;55469;48.934;12.050;2023-04-07T13:02:51;15.10;64.40
68480;DHT22;55469;48.934;12.050;2023-04-07T13:05:17;15.10;64.40
68480;DHT22;55469;48.934;12.050;2023-04-07T13:07:44;15.10;64.50
68480;DHT22;55469;48.934;12.050;2023-04-07T13:10:10;15.10;64.60
68480;DHT22;55469;48.934;12.050;2023-04-07T13:12:36;14.90;65.30
68480;DHT22;55469;48.934;12.050;2023-04-07T13:15:02;14.70;65.70
68480;DHT22;55469;48.934;12.050;2023-04-07T13:17:28;14.60;66.10
68480;DHT22;55469;48.934;12.050;2023-04-07T13:19:54;14.60;66.40
68480;DHT22;55469;48.934;12.050;2023-04-07T13:22:20;14.50;66.50
68480;DHT22;55469;48.934;12.050;2023-04-07T13:24:46;14.50;66.70
68480;DHT22;55469;48.934;12.050;2023-04-07T13:27:12;14.40;67.00
68480;DHT22;55469;48.934;12.050;2023-04-07T13:29:38;14.30;67.30
68480;DHT22;55469;48.934;12.050;2023-04-07T13:32:05;14.30;67.50
68480;DHT22;55469;48.934;12.050;2023-04-07T13:34:33;14.20;67.60
68480;DHT22;55469;48.934;12.050;2023-04-07T13:37:01;14.20;67.90
68480;DHT22;55469;48.934;12.050;2023-04-07T13:39:28;14.10;68.10
68480;DHT22;55469;48.934;12.050;2023-04-07T13:41:54;14.10;68.40
68480;DHT22;55469;48.934;12.050;2023-04-07T13:44:20;14.00;68.40
68480;DHT22;55469;48.934;12.050;2023-04-07T13:46:47;14.00;68.60
68480;DHT22;55469;48.934;12.050;2023-04-07T13:49:13;14.00;68.70
68480;DHT22;55469;48.934;12.050;2023-04-07T13:51:39;13.90;67.90
68480;DHT22;55469;48.934;12.050;2023-04-07T13:54:05;14.00;68.80
68480;DHT22;55469;48.934;12.050;2023-04-07T13:56:32;13.90;68.90
68480;DHT22;55469;48.934;12.050;2023-04-07T13:59:00;13.90;69.10
68480;DHT22;55469;48.934;12.050;2023-04-07T14:01:26;13.90;69.20
68480;DHT22;55469;48.934;12.050;2023-04-07T14:03:53;13.90;69.10
68480;DHT22;55469;48.934;12.050;2023-04-07T14:06:19;13.90;69.20
68480;DHT22;55469;48.934;12.050;2023-04-07T14:08:48;13.90;69.20
68480;DHT22;55469;48.934;12.050;2023-04-07T14:11:18;14.00;69.30
68480;DHT22;55469;48.934;12.050;2023-04-07T14:13:45;14.00;69.20
68480;DHT22;55469;48.934;12.050;2023-04-07T14:16:11;14.00;69.20
68480;DHT22;55469;48.934;12.050;2023-04-07T14:18:37;14.00;69.30
68480;DHT22;55469;48.934;12.050;2023-04-07T14:21:04;14.00;69.30
68480;DHT22;55469;48.934;12.050;2023-04-07T14:23:30;14.00;69.30
68480;DHT22;55469;48.934;12.050;2023-04-07T14:25:57;14.10;69.30
68480;DHT22;55469;48.934;12.050;2023-04-07T14:28:23;14.00;69.20
68480;DHT22;55469;48.934;12.050;2023-04-07T14:30:49;14.10;69.30
68480;DHT22;55469;48.934;12.050;2023-04-07T14:33:14;14.10;69.30
68480;DHT22;55469;48.934;12.050;2023-04-07T14:35:43;14.10;69.60
68480;DHT22;55469;48.934;12.050;2023-04-07T14:38:09;14.10;69.50
68480;DHT22;55469;48.934;12.050;2023-04-07T14:40:36;14.10;69.30
68480;DHT22;55469;48.934;12.050;2023-04-07T14:43:02;14.10;69.40
68480;DHT22;55469;48.934;12.050;2023-04-07T14:45:28;14.20;69.40
68480;DHT22;55469;48.934;12.050;2023-04-07T14:47:54;14.20;69.40
68480;DHT22;55469;48.934;12.050;2023-04-07T14:50:20;14.20;69.30
68480;DHT22;55469;48.934;12.050;2023-04-07T14:52:48;14.20;69.00
68480;DHT22;55469;48.934;12.050;2023-04-07T14:55:14;14.30;69.20
68480;DHT22;55469;48.934;12.050;2023-04-07T14:57:39;14.30;69.00
68480;DHT22;55469;48.934;12.050;2023-04-07T15:00:06;14.30;68.80
68480;DHT22;55469;48.934;12.050;2023-04-07T15:02:33;14.40;66.50
68480;DHT22;55469;48.934;12.050;2023-04-07T15:05:01;14.30;66.80
68480;DHT22;55469;48.934;12.050;2023-04-07T15:07:27;14.40;64.10
68480;DHT22;55469;48.934;12.050;2023-04-07T15:09:53;14.50;63.60
68480;DHT22;55469;48.934;12.050;2023-04-07T15:12:19;14.70;63.30
68480;DHT22;55469;48.934;12.050;2023-04-07T15:14:44;14.80;63.20
68480;DHT22;55469;48.934;12.050;2023-04-07T15:17:11;14.90;63.60
68480;DHT22;55469;48.934;12.050;2023-04-07T15:19:37;14.90;62.90
68480;DHT22;55469;48.934;12.050;2023-04-07T15:22:03;15.10;61.70
68480;DHT22;55469;48.934;12.050;2023-04-07T15:24:28;15.20;62.30
68480;DHT22;55469;48.934;12.050;2023-04-07T15:26:54;15.20;61.90
68480;DHT22;55469;48.934;12.050;2023-04-07T15:29:20;15.40;61.80
68480;DHT22;55469;48.934;12.050;2023-04-07T15:31:46;15.30;60.90
68480;DHT22;55469;48.934;12.050;2023-04-07T15:34:12;15.30;60.70
68480;DHT22;55469;48.934;12.050;2023-04-07T15:36:38;15.20;61.50
68480;DHT22;55469;48.934;12.050;2023-04-07T15:39:04;15.20;60.60
68480;DHT22;55469;48.934;12.050;2023-04-07T15:41:31;15.20;60.60